createdAt,value
2023-02-06T09:06:45.404Z,3.08
2023-02-06T09:09:12.938Z,2.53
2023-02-06T09:11:40.401Z,2.90
2023-02-06T09:14:08.065Z,2.65
2023-02-06T09:16:35.394Z,2.45
2023-02-06T09:19:02.471Z,2.58
2023-02-06T09:21:30.947Z,2.70
2023-02-06T09:23:59.915Z,2.08
2023-02-06T09:26:31.975Z,2.20
2023-02-06T09:29:01.233Z,1.95
2023-02-06T09:31:30.736Z,2.33
2023-02-06T09:33:58.425Z,2.80
2023-02-06T09:36:25.439Z,1.88
2023-02-06T09:38:57.645Z,2.67
2023-02-06T09:41:31.859Z,2.55
2023-02-06T09:44:10.637Z,2.63
2023-02-06T09:46:47.076Z,2.63
2023-02-06T09:49:18.050Z,1.90
2023-02-06T09:52:06.955Z,1.98
2023-02-06T09:54:51.569Z,2.00
2023-02-06T09:57:44.881Z,1.75
2023-02-06T10:00:23.499Z,1.90
2023-02-06T10:03:15.457Z,1.50
2023-02-06T10:05:59.670Z,2.05
2023-02-06T10:08:35.934Z,1.15
2023-02-06T10:11:12.690Z,1.00
2023-02-06T10:13:49.695Z,1.80
2023-02-06T10:16:41.834Z,1.92
2023-02-06T10:19:19.366Z,1.50
2023-02-06T10:21:56.259Z,1.90
2023-02-06T10:24:34.988Z,1.23
2023-02-06T10:27:03.535Z,1.30
2023-02-06T10:29:32.091Z,1.10
2023-02-06T10:32:21.932Z,1.80
2023-02-06T10:34:55.033Z,1.90
2023-02-06T10:37:55.326Z,0.80
2023-02-06T10:40:47.196Z,1.20
2023-02-06T10:43:31.115Z,1.63
2023-02-06T10:46:33.896Z,0.68
2023-02-06T10:49:27.963Z,1.10
2023-02-06T10:51:57.697Z,0.80
2023-02-06T10:54:35.102Z,1.15
2023-02-06T10:57:02.163Z,0.95
2023-02-06T10:59:35.589Z,1.05
2023-02-06T11:02:05.816Z,1.10
2023-02-06T11:05:06.633Z,1.08
2023-02-06T11:07:39.846Z,1.05
2023-02-06T11:10:07.190Z,2.03
2023-02-06T11:12:35.980Z,1.38
2023-02-06T11:15:32.741Z,1.55
2023-02-06T11:20:30.461Z,0.68
2023-02-06T11:23:20.118Z,0.73
2023-02-06T11:25:59.059Z,1.08
2023-02-06T11:28:26.249Z,1.08
2023-02-06T11:31:02.547Z,0.85
2023-02-06T11:33:54.505Z,0.52
2023-02-06T11:36:36.122Z,0.63
2023-02-06T11:39:23.776Z,1.15
2023-02-06T11:42:15.335Z,1.27
2023-02-06T11:44:44.139Z,0.70
2023-02-06T11:47:31.373Z,0.70
2023-02-06T11:50:13.842Z,0.43
2023-02-06T11:52:48.235Z,0.60
2023-02-06T11:55:25.310Z,0.60
2023-02-06T11:58:22.528Z,0.40
2023-02-06T12:00:52.911Z,0.20
2023-02-06T12:03:37.912Z,0.60
2023-02-06T12:06:14.209Z,0.35
2023-02-06T12:08:52.406Z,0.30
2023-02-06T12:11:42.068Z,0.30
2023-02-06T12:14:20.118Z,0.57
2023-02-06T12:16:47.184Z,0.60
2023-02-06T12:19:31.758Z,0.98
2023-02-06T12:22:05.125Z,0.15
2023-02-06T12:24:35.027Z,0.65
2023-02-06T12:27:17.451Z,1.90
2023-02-06T12:29:53.663Z,3.67
2023-02-06T12:32:29.357Z,1.08
2023-02-06T12:35:19.246Z,0.57
2023-02-06T12:37:56.946Z,1.25
2023-02-06T12:40:38.243Z,0.32
2023-02-06T12:43:12.980Z,0.88
2023-02-06T12:46:00.477Z,0.75
2023-02-06T12:48:53.883Z,0.50
2023-02-06T12:51:45.228Z,1.55
2023-02-06T12:54:24.962Z,1.25
2023-02-06T12:56:57.243Z,1.05
2023-02-06T12:59:58.272Z,0.30
2023-02-06T13:03:03.776Z,0.10
2023-02-06T13:05:35.977Z,0.10
2023-02-06T13:08:12.653Z,0.73
2023-02-06T13:10:41.122Z,0.10
2023-02-06T13:13:50.952Z,0.20
2023-02-06T13:16:18.451Z,0.32
2023-02-06T13:18:50.464Z,0.10
2023-02-06T13:21:28.803Z,0.57
2023-02-06T13:24:01.608Z,0.20
2023-02-06T13:26:46.389Z,0.25
2023-02-06T13:29:23.193Z,0.10
2023-02-06T13:31:52.770Z,0.10
2023-02-06T13:34:19.801Z,0.10
2023-02-06T13:36:51.728Z,0.15
2023-02-06T13:39:39.112Z,0.40
2023-02-06T13:42:46.549Z,0.20
2023-02-06T13:48:21.914Z,0.10
2023-02-06T13:50:58.754Z,0.10
2023-02-06T13:53:34.871Z,0.10
2023-02-06T13:56:38.589Z,0.32
2023-02-06T13:59:27.479Z,0.15
2023-02-06T14:01:54.706Z,0.80
2023-02-06T14:04:25.535Z,0.10
2023-02-06T14:07:03.508Z,0.30
2023-02-06T14:09:52.842Z,0.10
2023-02-06T14:12:34.393Z,0.10
2023-02-06T14:15:16.603Z,0.22
2023-02-06T14:18:17.760Z,0.15
2023-02-06T14:20:54.537Z,0.00
2023-02-06T14:23:47.871Z,0.10
2023-02-06T14:27:09.221Z,0.05
2023-02-06T14:29:41.503Z,0.00
2023-02-06T14:32:48.064Z,0.00
2023-02-06T14:35:26.069Z,0.10
2023-02-06T14:38:08.258Z,0.08
2023-02-06T14:40:39.958Z,0.10
2023-02-06T14:43:07.968Z,0.10
2023-02-06T14:45:41.647Z,0.10
2023-02-06T14:48:37.789Z,0.10
2023-02-06T14:51:05.212Z,0.20
2023-02-06T14:53:37.418Z,0.20
2023-02-06T14:56:24.590Z,0.10
2023-02-06T14:58:51.703Z,0.15
2023-02-06T15:01:20.789Z,0.10
2023-02-06T15:03:49.259Z,0.25
2023-02-06T15:06:33.714Z,0.00
2023-02-06T15:09:01.321Z,0.20
2023-02-06T15:11:35.287Z,0.10
2023-02-06T15:14:06.278Z,0.00
2023-02-06T15:16:52.551Z,0.35
2023-02-06T15:19:33.884Z,0.10
2023-02-06T15:22:06.026Z,0.05
2023-02-06T15:24:38.876Z,0.15
2023-02-06T15:27:05.821Z,0.10
2023-02-06T15:29:33.087Z,0.20
2023-02-06T15:32:04.047Z,0.10
2023-02-06T15:34:31.307Z,0.10
2023-02-06T15:36:58.266Z,0.10
2023-02-06T15:39:25.370Z,0.10
2023-02-06T15:41:52.587Z,0.10
2023-02-06T15:44:22.749Z,0.10
2023-02-06T15:46:50.189Z,0.17
2023-02-06T15:49:37.024Z,0.00
2023-02-06T15:54:32.772Z,0.10
2023-02-06T15:57:30.427Z,0.20
2023-02-06T15:59:57.710Z,0.65
2023-02-06T16:02:31.826Z,0.20
2023-02-06T16:04:59.087Z,0.00
2023-02-06T16:07:28.011Z,0.20
2023-02-06T16:10:00.089Z,0.30
2023-02-06T16:12:27.668Z,0.10
2023-02-06T16:14:59.484Z,0.20
2023-02-06T16:17:34.746Z,0.32
2023-02-06T16:20:07.445Z,0.10
2023-02-06T16:22:37.825Z,0.30
2023-02-06T16:25:28.863Z,0.20
2023-02-06T16:28:00.857Z,0.50
2023-02-06T16:30:32.678Z,0.30
2023-02-06T16:33:00.937Z,0.57
2023-02-06T16:35:28.285Z,0.40
2023-02-06T16:37:56.971Z,0.30
2023-02-06T16:43:15.005Z,0.60
